Terminal Aerodrome Forecast
Issued by NWS Bismarck, ND

Home | Current Version | Previous Version | Graphics & Text | Print | Product List | Glossary On
Versions: 1 2 3 4 5 6 7 8 9 10 11 12 13 14 15 16
000
FTUS43 KBIS 150538
TAFBIS
TAF
KBIS 150538Z 1506/1606 27006KT P6SM OVC035
      TEMPO 1506/1510 BKN025 OVC035
     FM151000 26004KT P6SM OVC035
     FM151800 24010KT P6SM BKN060
     FM160100 26004KT P6SM BKN100=

USA.gov is the U.S. government's official web portal to all federal, state and local government web resources and services.